sensor_id;sensor_type;location;lat;lon;timestamp;pressure;altitude;pressure_sealevel;temperature;humidity
77737;BME280;66903;59.926;30.404;2023-02-28T00:01:55;101049.16;;;24.61;31.02
77737;BME280;66903;59.926;30.404;2023-02-28T00:06:56;101048.00;;;24.62;31.48
77737;BME280;66903;59.926;30.404;2023-02-28T00:11:56;101039.13;;;24.64;31.32
77737;BME280;66903;59.926;30.404;2023-02-28T00:16:58;101031.13;;;24.66;31.69
77737;BME280;66903;59.926;30.404;2023-02-28T00:21:58;101009.13;;;24.66;30.98
77737;BME280;66903;59.926;30.404;2023-02-28T00:26:59;101011.69;;;24.68;31.39
77737;BME280;66903;59.926;30.404;2023-02-28T00:31:59;101008.53;;;24.69;31.39
77737;BME280;66903;59.926;30.404;2023-02-28T00:37:18;101011.34;;;24.74;30.73
77737;BME280;66903;59.926;30.404;2023-02-28T00:42:38;101011.97;;;24.71;31.33
77737;BME280;66903;59.926;30.404;2023-02-28T00:47:39;101003.94;;;24.73;31.09
77737;BME280;66903;59.926;30.404;2023-02-28T00:53:01;100997.28;;;24.78;30.75
77737;BME280;66903;59.926;30.404;2023-02-28T00:58:20;100982.47;;;24.76;31.32
77737;BME280;66903;59.926;30.404;2023-02-28T01:03:21;100977.28;;;24.78;30.87
77737;BME280;66903;59.926;30.404;2023-02-28T01:08:22;100963.56;;;24.80;30.70
77737;BME280;66903;59.926;30.404;2023-02-28T01:13:23;100964.94;;;24.82;31.07
77737;BME280;66903;59.926;30.404;2023-02-28T01:18:25;100962.31;;;24.86;30.96
77737;BME280;66903;59.926;30.404;2023-02-28T01:23:25;100944.03;;;24.87;31.01
77737;BME280;66903;59.926;30.404;2023-02-28T01:28:44;100950.84;;;24.91;30.79
77737;BME280;66903;59.926;30.404;2023-02-28T01:39:34;100940.56;;;24.90;30.71
77737;BME280;66903;59.926;30.404;2023-02-28T01:56:36;100905.66;;;24.93;31.09
77737;BME280;66903;59.926;30.404;2023-02-28T02:01:37;100921.09;;;24.92;31.40
77737;BME280;66903;59.926;30.404;2023-02-28T02:06:41;100921.34;;;24.95;31.01
77737;BME280;66903;59.926;30.404;2023-02-28T02:12:28;100925.28;;;24.99;30.56
77737;BME280;66903;59.926;30.404;2023-02-28T02:17:46;100914.44;;;24.96;31.18
77737;BME280;66903;59.926;30.404;2023-02-28T02:34:46;100903.56;;;24.98;30.85
77737;BME280;66903;59.926;30.404;2023-02-28T02:40:23;100904.44;;;24.99;31.40
77737;BME280;66903;59.926;30.404;2023-02-28T02:46:04;100899.81;;;25.03;30.94
77737;BME280;66903;59.926;30.404;2023-02-28T02:51:20;100887.50;;;25.02;30.87
77737;BME280;66903;59.926;30.404;2023-02-28T02:56:42;100888.69;;;25.01;31.06
77737;BME280;66903;59.926;30.404;2023-02-28T03:01:44;100860.63;;;25.03;30.97
77737;BME280;66903;59.926;30.404;2023-02-28T03:06:45;100864.03;;;25.05;30.82
77737;BME280;66903;59.926;30.404;2023-02-28T03:11:58;100827.19;;;25.04;30.66
77737;BME280;66903;59.926;30.404;2023-02-28T03:17:14;100841.69;;;25.07;30.78
77737;BME280;66903;59.926;30.404;2023-02-28T03:34:17;100847.09;;;25.09;30.52
77737;BME280;66903;59.926;30.404;2023-02-28T03:39:57;100841.38;;;25.09;30.60
77737;BME280;66903;59.926;30.404;2023-02-28T03:45:48;100843.94;;;25.10;30.33
77737;BME280;66903;59.926;30.404;2023-02-28T03:50:57;100845.72;;;25.06;30.79
77737;BME280;66903;59.926;30.404;2023-02-28T03:56:37;100837.94;;;25.12;30.75
77737;BME280;66903;59.926;30.404;2023-02-28T04:01:44;100833.34;;;25.11;30.75
77737;BME280;66903;59.926;30.404;2023-02-28T04:06:45;100838.22;;;25.10;30.98
77737;BME280;66903;59.926;30.404;2023-02-28T04:11:50;100833.91;;;25.13;30.61
77737;BME280;66903;59.926;30.404;2023-02-28T04:16:52;100843.00;;;24.96;30.37
77737;BME280;66903;59.926;30.404;2023-02-28T04:21:53;100863.56;;;24.80;30.75
77737;BME280;66903;59.926;30.404;2023-02-28T04:26:56;100845.44;;;24.66;30.86
77737;BME280;66903;59.926;30.404;2023-02-28T04:31:58;100840.53;;;24.48;30.92
77737;BME280;66903;59.926;30.404;2023-02-28T04:37:01;100848.38;;;24.37;30.63
77737;BME280;66903;59.926;30.404;2023-02-28T04:42:03;100836.25;;;24.27;30.91
77737;BME280;66903;59.926;30.404;2023-02-28T04:47:04;100821.78;;;24.18;30.68
77737;BME280;66903;59.926;30.404;2023-02-28T04:52:04;100818.47;;;24.11;30.77
77737;BME280;66903;59.926;30.404;2023-02-28T04:57:07;100814.56;;;24.02;30.96
77737;BME280;66903;59.926;30.404;2023-02-28T05:02:07;100808.84;;;24.02;31.05
77737;BME280;66903;59.926;30.404;2023-02-28T05:07:14;100811.72;;;24.02;30.83
77737;BME280;66903;59.926;30.404;2023-02-28T05:12:17;100822.03;;;23.98;30.79
77737;BME280;66903;59.926;30.404;2023-02-28T05:17:18;100841.44;;;23.96;30.45
77737;BME280;66903;59.926;30.404;2023-02-28T05:22:18;100840.66;;;23.90;30.68
77737;BME280;66903;59.926;30.404;2023-02-28T05:27:19;100828.13;;;23.86;30.44
77737;BME280;66903;59.926;30.404;2023-02-28T05:32:19;100809.38;;;23.80;30.35
77737;BME280;66903;59.926;30.404;2023-02-28T05:37:20;100822.16;;;23.83;30.56
77737;BME280;66903;59.926;30.404;2023-02-28T05:42:30;100830.44;;;23.84;30.46
77737;BME280;66903;59.926;30.404;2023-02-28T05:47:30;100834.19;;;23.80;30.25
77737;BME280;66903;59.926;30.404;2023-02-28T05:52:31;100835.38;;;23.74;30.29
77737;BME280;66903;59.926;30.404;2023-02-28T05:58:05;100864.09;;;23.82;30.56
77737;BME280;66903;59.926;30.404;2023-02-28T06:03:09;100872.16;;;23.75;30.61
77737;BME280;66903;59.926;30.404;2023-02-28T06:08:09;100901.53;;;23.76;30.60
77737;BME280;66903;59.926;30.404;2023-02-28T06:13:10;100901.25;;;23.77;30.79
77737;BME280;66903;59.926;30.404;2023-02-28T06:18:11;100904.97;;;23.78;30.77
77737;BME280;66903;59.926;30.404;2023-02-28T06:23:27;100908.31;;;23.85;31.03
77737;BME280;66903;59.926;30.404;2023-02-28T06:28:46;100905.41;;;23.90;31.02
77737;BME280;66903;59.926;30.404;2023-02-28T06:33:47;100913.09;;;23.94;31.61
77737;BME280;66903;59.926;30.404;2023-02-28T06:38:48;100915.31;;;24.02;32.80
77737;BME280;66903;59.926;30.404;2023-02-28T06:43:54;100943.91;;;24.21;31.12
77737;BME280;66903;59.926;30.404;2023-02-28T06:48:54;100946.34;;;24.09;32.41
77737;BME280;66903;59.926;30.404;2023-02-28T06:53:57;100968.91;;;24.05;32.69
77737;BME280;66903;59.926;30.404;2023-02-28T06:58:58;100986.09;;;24.00;32.98
77737;BME280;66903;59.926;30.404;2023-02-28T07:04:05;100988.66;;;23.97;33.10
77737;BME280;66903;59.926;30.404;2023-02-28T07:09:05;101008.63;;;24.02;33.16
77737;BME280;66903;59.926;30.404;2023-02-28T07:14:07;101022.88;;;24.02;33.09
77737;BME280;66903;59.926;30.404;2023-02-28T07:19:08;100996.34;;;24.01;33.32
77737;BME280;66903;59.926;30.404;2023-02-28T07:24:08;101010.34;;;24.03;32.89
77737;BME280;66903;59.926;30.404;2023-02-28T07:29:09;101005.47;;;24.03;33.02
77737;BME280;66903;59.926;30.404;2023-02-28T07:34:09;101009.44;;;24.07;33.00
77737;BME280;66903;59.926;30.404;2023-02-28T07:39:10;101011.13;;;24.08;33.26
77737;BME280;66903;59.926;30.404;2023-02-28T07:44:11;101000.56;;;24.09;33.16
77737;BME280;66903;59.926;30.404;2023-02-28T07:49:11;101007.44;;;24.08;33.00
77737;BME280;66903;59.926;30.404;2023-02-28T07:54:12;100997.72;;;24.09;32.83
77737;BME280;66903;59.926;30.404;2023-02-28T07:59:15;101011.69;;;24.10;32.41
77737;BME280;66903;59.926;30.404;2023-02-28T08:04:19;101005.66;;;24.12;32.82
77737;BME280;66903;59.926;30.404;2023-02-28T08:09:20;101020.78;;;24.13;32.56
77737;BME280;66903;59.926;30.404;2023-02-28T08:14:20;101009.06;;;24.14;32.45
77737;BME280;66903;59.926;30.404;2023-02-28T08:19:21;101006.78;;;24.16;32.33
77737;BME280;66903;59.926;30.404;2023-02-28T08:24:21;101032.16;;;24.18;32.26
77737;BME280;66903;59.926;30.404;2023-02-28T08:29:22;101034.19;;;24.17;32.53
77737;BME280;66903;59.926;30.404;2023-02-28T08:34:22;101035.84;;;24.23;32.10
77737;BME280;66903;59.926;30.404;2023-02-28T08:39:23;101044.91;;;24.30;31.74
77737;BME280;66903;59.926;30.404;2023-02-28T08:44:23;101049.97;;;24.38;32.38
77737;BME280;66903;59.926;30.404;2023-02-28T08:49:24;101043.34;;;24.43;31.71
77737;BME280;66903;59.926;30.404;2023-02-28T08:54:24;101056.13;;;24.50;31.47
77737;BME280;66903;59.926;30.404;2023-02-28T08:59:25;101057.34;;;24.73;31.21
77737;BME280;66903;59.926;30.404;2023-02-28T09:04:25;101071.84;;;25.52;30.95
77737;BME280;66903;59.926;30.404;2023-02-28T09:09:26;101082.44;;;26.90;29.49
77737;BME280;66903;59.926;30.404;2023-02-28T09:14:26;101096.50;;;29.19;28.57
77737;BME280;66903;59.926;30.404;2023-02-28T09:19:27;101092.06;;;32.19;26.15
77737;BME280;66903;59.926;30.404;2023-02-28T09:24:36;101096.75;;;34.67;24.55
77737;BME280;66903;59.926;30.404;2023-02-28T09:29:37;101097.66;;;36.57;23.20
77737;BME280;66903;59.926;30.404;2023-02-28T09:34:38;101101.50;;;38.13;22.58
77737;BME280;66903;59.926;30.404;2023-02-28T09:39:38;101095.94;;;39.23;22.60
77737;BME280;66903;59.926;30.404;2023-02-28T09:44:43;101095.97;;;40.17;21.82
77737;BME280;66903;59.926;30.404;2023-02-28T09:49:46;101101.50;;;40.98;21.52
77737;BME280;66903;59.926;30.404;2023-02-28T09:54:48;101102.91;;;40.46;21.70
77737;BME280;66903;59.926;30.404;2023-02-28T10:05:13;101105.94;;;37.77;22.55
77737;BME280;66903;59.926;30.404;2023-02-28T10:10:23;101112.16;;;36.19;22.95
77737;BME280;66903;59.926;30.404;2023-02-28T10:15:27;101117.00;;;34.79;23.31
77737;BME280;66903;59.926;30.404;2023-02-28T10:20:32;101118.19;;;33.86;23.13
77737;BME280;66903;59.926;30.404;2023-02-28T10:25:36;101113.38;;;34.42;22.80
77737;BME280;66903;59.926;30.404;2023-02-28T10:30:50;101116.25;;;35.68;22.05
77737;BME280;66903;59.926;30.404;2023-02-28T10:35:52;101112.88;;;36.32;21.38
77737;BME280;66903;59.926;30.404;2023-02-28T10:41:04;101118.81;;;36.35;21.40
77737;BME280;66903;59.926;30.404;2023-02-28T10:51:14;101129.78;;;37.18;20.91
77737;BME280;66903;59.926;30.404;2023-02-28T11:01:35;101128.94;;;36.80;21.06
77737;BME280;66903;59.926;30.404;2023-02-28T11:06:38;101125.72;;;36.31;21.53
77737;BME280;66903;59.926;30.404;2023-02-28T11:11:44;101121.22;;;35.83;21.01
77737;BME280;66903;59.926;30.404;2023-02-28T11:16:46;101132.00;;;35.08;21.69
77737;BME280;66903;59.926;30.404;2023-02-28T11:21:59;101138.03;;;34.88;21.91
77737;BME280;66903;59.926;30.404;2023-02-28T11:27:00;101135.56;;;34.74;21.47
77737;BME280;66903;59.926;30.404;2023-02-28T11:37:18;101123.72;;;34.15;21.44
77737;BME280;66903;59.926;30.404;2023-02-28T11:53:49;101123.41;;;31.80;21.36
77737;BME280;66903;59.926;30.404;2023-02-28T12:04:25;101134.94;;;30.19;22.25
77737;BME280;66903;59.926;30.404;2023-02-28T12:35:48;101141.03;;;27.71;23.09
77737;BME280;66903;59.926;30.404;2023-02-28T12:45:59;101135.31;;;27.30;23.19
77737;BME280;66903;59.926;30.404;2023-02-28T12:51:01;101143.88;;;27.16;23.23
77737;BME280;66903;59.926;30.404;2023-02-28T12:56:33;101148.03;;;27.10;23.44
77737;BME280;66903;59.926;30.404;2023-02-28T13:01:48;101144.97;;;26.88;23.38
77737;BME280;66903;59.926;30.404;2023-02-28T13:12:35;101160.00;;;26.48;23.62
77737;BME280;66903;59.926;30.404;2023-02-28T13:17:36;101151.66;;;26.33;23.91
77737;BME280;66903;59.926;30.404;2023-02-28T13:22:48;101142.16;;;26.19;23.73
77737;BME280;66903;59.926;30.404;2023-02-28T13:27:49;101165.97;;;26.14;23.77
77737;BME280;66903;59.926;30.404;2023-02-28T13:38:25;101166.31;;;25.47;23.33
77737;BME280;66903;59.926;30.404;2023-02-28T13:44:10;101170.41;;;25.36;23.34
77737;BME280;66903;59.926;30.404;2023-02-28T14:05:17;101168.06;;;24.86;23.28
77737;BME280;66903;59.926;30.404;2023-02-28T14:10:32;101163.88;;;24.78;23.66
77737;BME280;66903;59.926;30.404;2023-02-28T14:20:40;101149.63;;;24.68;23.71
77737;BME280;66903;59.926;30.404;2023-02-28T14:41:11;101165.75;;;24.59;23.73
77737;BME280;66903;59.926;30.404;2023-02-28T14:46:13;101158.97;;;24.50;23.61
77737;BME280;66903;59.926;30.404;2023-02-28T14:51:19;101167.31;;;24.42;23.64
77737;BME280;66903;59.926;30.404;2023-02-28T14:56:30;101172.25;;;24.31;23.33
77737;BME280;66903;59.926;30.404;2023-02-28T15:07:20;101168.09;;;24.08;23.50
77737;BME280;66903;59.926;30.404;2023-02-28T15:12:31;101175.59;;;23.94;23.34
77737;BME280;66903;59.926;30.404;2023-02-28T15:17:35;101173.66;;;23.85;23.44
77737;BME280;66903;59.926;30.404;2023-02-28T15:22:37;101184.19;;;23.84;23.54
77737;BME280;66903;59.926;30.404;2023-02-28T15:27:44;101188.78;;;23.85;23.41
77737;BME280;66903;59.926;30.404;2023-02-28T15:33:06;101190.47;;;23.86;23.50
77737;BME280;66903;59.926;30.404;2023-02-28T15:38:23;101179.63;;;23.88;23.44
77737;BME280;66903;59.926;30.404;2023-02-28T15:43:30;101185.91;;;23.85;23.80
77737;BME280;66903;59.926;30.404;2023-02-28T15:48:34;101190.75;;;23.85;23.76
77737;BME280;66903;59.926;30.404;2023-02-28T15:58:44;101200.47;;;23.84;23.35
77737;BME280;66903;59.926;30.404;2023-02-28T16:03:48;101200.47;;;23.84;23.49
77737;BME280;66903;59.926;30.404;2023-02-28T16:08:48;101216.47;;;23.80;23.55
77737;BME280;66903;59.926;30.404;2023-02-28T16:13:52;101210.19;;;23.78;23.67
77737;BME280;66903;59.926;30.404;2023-02-28T16:18:54;101217.63;;;23.74;23.74
77737;BME280;66903;59.926;30.404;2023-02-28T16:23:55;101209.97;;;23.69;23.50
77737;BME280;66903;59.926;30.404;2023-02-28T16:28:56;101213.97;;;23.63;23.57
77737;BME280;66903;59.926;30.404;2023-02-28T16:33:56;101220.22;;;23.65;23.87
77737;BME280;66903;59.926;30.404;2023-02-28T16:38:57;101224.53;;;23.63;24.48
77737;BME280;66903;59.926;30.404;2023-02-28T16:43:58;101217.66;;;23.64;24.35
77737;BME280;66903;59.926;30.404;2023-02-28T16:49:00;101215.41;;;23.61;24.50
77737;BME280;66903;59.926;30.404;2023-02-28T16:54:01;101223.41;;;23.59;24.95
77737;BME280;66903;59.926;30.404;2023-02-28T16:59:02;101210.25;;;23.58;25.18
77737;BME280;66903;59.926;30.404;2023-02-28T17:04:04;101198.31;;;23.56;25.57
77737;BME280;66903;59.926;30.404;2023-02-28T17:09:05;101202.00;;;23.56;26.06
77737;BME280;66903;59.926;30.404;2023-02-28T17:14:15;101187.19;;;23.54;25.98
77737;BME280;66903;59.926;30.404;2023-02-28T17:19:16;101189.50;;;23.52;27.52
77737;BME280;66903;59.926;30.404;2023-02-28T17:24:17;101182.59;;;23.58;27.60
77737;BME280;66903;59.926;30.404;2023-02-28T17:29:20;101169.75;;;23.66;27.66
77737;BME280;66903;59.926;30.404;2023-02-28T17:34:21;101184.56;;;23.73;27.73
77737;BME280;66903;59.926;30.404;2023-02-28T17:39:22;101177.13;;;23.77;27.45
77737;BME280;66903;59.926;30.404;2023-02-28T17:44:26;101178.81;;;23.78;27.50
77737;BME280;66903;59.926;30.404;2023-02-28T17:49:27;101184.53;;;23.78;27.67
77737;BME280;66903;59.926;30.404;2023-02-28T17:54:28;101178.25;;;23.76;27.11
77737;BME280;66903;59.926;30.404;2023-02-28T17:59:29;101169.16;;;23.69;27.46
77737;BME280;66903;59.926;30.404;2023-02-28T18:04:33;101169.75;;;23.66;27.73
77737;BME280;66903;59.926;30.404;2023-02-28T18:09:34;101177.44;;;23.65;27.42
77737;BME280;66903;59.926;30.404;2023-02-28T18:14:34;101162.88;;;23.67;27.60
77737;BME280;66903;59.926;30.404;2023-02-28T18:19:35;101149.78;;;23.66;27.81
77737;BME280;66903;59.926;30.404;2023-02-28T18:24:36;101161.75;;;23.68;27.79
77737;BME280;66903;59.926;30.404;2023-02-28T18:29:36;101141.81;;;23.63;28.09
77737;BME280;66903;59.926;30.404;2023-02-28T18:34:37;101151.19;;;23.68;28.17
77737;BME280;66903;59.926;30.404;2023-02-28T18:39:37;101138.94;;;23.68;28.41
77737;BME280;66903;59.926;30.404;2023-02-28T18:44:38;101126.44;;;23.59;27.97
77737;BME280;66903;59.926;30.404;2023-02-28T18:49:39;101134.66;;;23.65;28.43
77737;BME280;66903;59.926;30.404;2023-02-28T18:54:39;101140.94;;;23.67;28.77
77737;BME280;66903;59.926;30.404;2023-02-28T18:59:40;101135.78;;;23.69;29.08
77737;BME280;66903;59.926;30.404;2023-02-28T19:04:40;101129.50;;;23.72;29.19
77737;BME280;66903;59.926;30.404;2023-02-28T19:09:41;101140.03;;;23.77;29.47
77737;BME280;66903;59.926;30.404;2023-02-28T19:14:41;101140.56;;;23.79;29.66
77737;BME280;66903;59.926;30.404;2023-02-28T19:19:43;101138.88;;;23.78;29.27
77737;BME280;66903;59.926;30.404;2023-02-28T19:24:43;101143.75;;;23.72;28.76
77737;BME280;66903;59.926;30.404;2023-02-28T19:29:47;101144.66;;;23.68;28.47
77737;BME280;66903;59.926;30.404;2023-02-28T19:34:48;101145.81;;;23.62;28.47
77737;BME280;66903;59.926;30.404;2023-02-28T19:39:49;101140.44;;;23.55;28.71
77737;BME280;66903;59.926;30.404;2023-02-28T19:44:49;101133.59;;;23.51;28.71
77737;BME280;66903;59.926;30.404;2023-02-28T19:49:50;101137.91;;;23.49;28.37
77737;BME280;66903;59.926;30.404;2023-02-28T19:54:54;101149.28;;;23.44;28.37
77737;BME280;66903;59.926;30.404;2023-02-28T20:00:07;101136.47;;;23.46;28.46
77737;BME280;66903;59.926;30.404;2023-02-28T20:05:10;101135.03;;;23.49;29.11
77737;BME280;66903;59.926;30.404;2023-02-28T20:10:13;101134.38;;;23.67;29.49
77737;BME280;66903;59.926;30.404;2023-02-28T20:15:14;101123.69;;;23.92;29.30
77737;BME280;66903;59.926;30.404;2023-02-28T20:20:14;101128.97;;;24.14;29.46
77737;BME280;66903;59.926;30.404;2023-02-28T20:25:15;101145.00;;;24.10;25.89
77737;BME280;66903;59.926;30.404;2023-02-28T20:30:16;101139.91;;;21.01;26.07
77737;BME280;66903;59.926;30.404;2023-02-28T20:35:16;101136.69;;;17.68;27.83
77737;BME280;66903;59.926;30.404;2023-02-28T20:40:17;101130.78;;;15.68;28.76
77737;BME280;66903;59.926;30.404;2023-02-28T20:45:18;101129.75;;;14.67;29.00
77737;BME280;66903;59.926;30.404;2023-02-28T20:50:18;101120.19;;;14.25;32.25
77737;BME280;66903;59.926;30.404;2023-02-28T20:55:19;101117.00;;;15.90;32.46
77737;BME280;66903;59.926;30.404;2023-02-28T21:00:20;101105.19;;;17.76;31.24
77737;BME280;66903;59.926;30.404;2023-02-28T21:05:21;101118.47;;;19.35;30.27
77737;BME280;66903;59.926;30.404;2023-02-28T21:10:59;101117.00;;;20.39;29.71
77737;BME280;66903;59.926;30.404;2023-02-28T21:16:07;101123.75;;;21.11;29.80
77737;BME280;66903;59.926;30.404;2023-02-28T21:21:39;101131.09;;;21.64;29.11
77737;BME280;66903;59.926;30.404;2023-02-28T21:26:44;101110.66;;;20.63;28.16
77737;BME280;66903;59.926;30.404;2023-02-28T21:31:44;101120.38;;;19.77;29.64
77737;BME280;66903;59.926;30.404;2023-02-28T21:36:45;101119.22;;;20.32;29.44
77737;BME280;66903;59.926;30.404;2023-02-28T21:41:46;101123.09;;;20.94;29.38
77737;BME280;66903;59.926;30.404;2023-02-28T21:46:48;101115.97;;;21.43;29.72
77737;BME280;66903;59.926;30.404;2023-02-28T21:51:51;101116.69;;;21.85;29.58
77737;BME280;66903;59.926;30.404;2023-02-28T21:56:55;101102.75;;;22.19;29.76
77737;BME280;66903;59.926;30.404;2023-02-28T22:01:55;101105.31;;;22.46;30.66
77737;BME280;66903;59.926;30.404;2023-02-28T22:06:58;101106.66;;;21.68;29.63
77737;BME280;66903;59.926;30.404;2023-02-28T22:11:58;101114.63;;;21.76;29.32
77737;BME280;66903;59.926;30.404;2023-02-28T22:16:59;101109.31;;;22.10;28.94
77737;BME280;66903;59.926;30.404;2023-02-28T22:22:00;101101.63;;;22.40;28.31
77737;BME280;66903;59.926;30.404;2023-02-28T22:27:00;101118.16;;;22.63;28.49
77737;BME280;66903;59.926;30.404;2023-02-28T22:32:00;101107.28;;;22.80;27.87
77737;BME280;66903;59.926;30.404;2023-02-28T22:37:01;101114.94;;;22.95;27.66
77737;BME280;66903;59.926;30.404;2023-02-28T22:42:02;101115.78;;;23.05;27.43
77737;BME280;66903;59.926;30.404;2023-02-28T22:47:02;101110.91;;;23.11;27.19
77737;BME280;66903;59.926;30.404;2023-02-28T22:52:03;101111.75;;;23.17;27.18
77737;BME280;66903;59.926;30.404;2023-02-28T22:57:03;101119.41;;;23.26;27.27
77737;BME280;66903;59.926;30.404;2023-02-28T23:02:04;101119.44;;;23.31;26.95
77737;BME280;66903;59.926;30.404;2023-02-28T23:07:04;101131.66;;;23.37;27.05
77737;BME280;66903;59.926;30.404;2023-02-28T23:12:05;101119.38;;;23.41;26.65
77737;BME280;66903;59.926;30.404;2023-02-28T23:17:05;101131.63;;;23.47;26.59
77737;BME280;66903;59.926;30.404;2023-02-28T23:22:06;101131.03;;;23.50;26.37
77737;BME280;66903;59.926;30.404;2023-02-28T23:27:38;101132.16;;;23.54;26.39
77737;BME280;66903;59.926;30.404;2023-02-28T23:32:42;101134.16;;;23.53;26.30
77737;BME280;66903;59.926;30.404;2023-02-28T23:37:42;101136.41;;;23.56;26.20
77737;BME280;66903;59.926;30.404;2023-02-28T23:42:43;101138.72;;;23.59;26.57
77737;BME280;66903;59.926;30.404;2023-02-28T23:47:53;101147.78;;;23.61;26.41
77737;BME280;66903;59.926;30.404;2023-02-28T23:52:56;101143.50;;;23.64;26.70
77737;BME280;66903;59.926;30.404;2023-02-28T23:57:57;101140.06;;;23.67;26.97
